sensor_id;sensor_type;location;lat;lon;timestamp;pressure;altitude;pressure_sealevel;temperature;humidity
31096;BME280;17749;51.962;8.560;2023-05-14T05:00:28;100276.72;;;10.97;100.00
31096;BME280;17749;51.962;8.560;2023-05-14T05:02:56;100280.59;;;11.12;100.00
31096;BME280;17749;51.962;8.560;2023-05-14T05:05:24;100275.56;;;11.26;100.00
31096;BME280;17749;51.962;8.560;2023-05-14T05:07:51;100272.28;;;11.41;100.00
31096;BME280;17749;51.962;8.560;2023-05-14T05:10:33;100274.88;;;11.65;100.00
31096;BME280;17749;51.962;8.560;2023-05-14T05:13:00;100290.97;;;11.84;100.00
31096;BME280;17749;51.962;8.560;2023-05-14T05:15:27;100281.56;;;11.97;100.00
31096;BME280;17749;51.962;8.560;2023-05-14T05:17:54;100276.53;;;12.10;100.00
31096;BME280;17749;51.962;8.560;2023-05-14T05:20:21;100281.34;;;12.22;100.00
31096;BME280;17749;51.962;8.560;2023-05-14T05:22:49;100270.97;;;12.35;100.00
31096;BME280;17749;51.962;8.560;2023-05-14T05:25:16;100268.84;;;12.43;100.00
31096;BME280;17749;51.962;8.560;2023-05-14T05:27:43;100260.94;;;12.61;100.00
31096;BME280;17749;51.962;8.560;2023-05-14T05:30:10;100266.56;;;12.74;100.00
31096;BME280;17749;51.962;8.560;2023-05-14T05:32:37;100263.97;;;12.91;100.00
31096;BME280;17749;51.962;8.560;2023-05-14T05:35:04;100270.34;;;13.07;100.00
31096;BME280;17749;51.962;8.560;2023-05-14T05:37:32;100273.03;;;13.25;100.00
31096;BME280;17749;51.962;8.560;2023-05-14T05:39:59;100278.53;;;13.41;100.00
31096;BME280;17749;51.962;8.560;2023-05-14T05:42:26;100275.19;;;13.54;100.00
31096;BME280;17749;51.962;8.560;2023-05-14T05:44:52;100273.16;;;13.77;100.00
31096;BME280;17749;51.962;8.560;2023-05-14T05:47:19;100280.09;;;13.98;100.00
31096;BME280;17749;51.962;8.560;2023-05-14T05:49:47;100273.88;;;14.15;100.00
31096;BME280;17749;51.962;8.560;2023-05-14T05:52:13;100268.25;;;14.20;100.00
31096;BME280;17749;51.962;8.560;2023-05-14T05:54:40;100271.72;;;14.39;100.00
31096;BME280;17749;51.962;8.560;2023-05-14T05:57:07;100276.19;;;14.56;100.00
31096;BME280;17749;51.962;8.560;2023-05-14T05:59:34;100275.41;;;14.87;100.00
31096;BME280;17749;51.962;8.560;2023-05-14T06:02:01;100270.75;;;15.07;100.00
31096;BME280;17749;51.962;8.560;2023-05-14T06:04:28;100279.91;;;15.34;100.00
31096;BME280;17749;51.962;8.560;2023-05-14T06:06:55;100275.47;;;15.65;100.00
31096;BME280;17749;51.962;8.560;2023-05-14T06:09:22;100283.84;;;15.91;100.00
31096;BME280;17749;51.962;8.560;2023-05-14T06:11:49;100285.63;;;16.20;100.00
31096;BME280;17749;51.962;8.560;2023-05-14T06:14:16;100269.94;;;16.57;100.00
31096;BME280;17749;51.962;8.560;2023-05-14T06:16:43;100280.88;;;16.97;100.00
31096;BME280;17749;51.962;8.560;2023-05-14T06:19:10;100278.50;;;17.34;100.00
31096;BME280;17749;51.962;8.560;2023-05-14T06:21:38;100282.53;;;17.68;100.00
31096;BME280;17749;51.962;8.560;2023-05-14T06:24:05;100272.91;;;17.91;100.00
31096;BME280;17749;51.962;8.560;2023-05-14T06:26:32;100278.78;;;18.11;100.00
31096;BME280;17749;51.962;8.560;2023-05-14T06:28:59;100276.22;;;18.35;100.00
31096;BME280;17749;51.962;8.560;2023-05-14T06:31:26;100273.53;;;18.48;100.00
31096;BME280;17749;51.962;8.560;2023-05-14T06:33:53;100273.00;;;18.68;100.00
31096;BME280;17749;51.962;8.560;2023-05-14T06:36:20;100274.16;;;19.02;100.00
31096;BME280;17749;51.962;8.560;2023-05-14T06:38:47;100270.38;;;19.42;100.00
31096;BME280;17749;51.962;8.560;2023-05-14T06:41:15;100277.44;;;19.80;100.00
31096;BME280;17749;51.962;8.560;2023-05-14T06:43:42;100271.34;;;19.89;95.40
31096;BME280;17749;51.962;8.560;2023-05-14T06:46:09;100268.59;;;19.78;94.97
31096;BME280;17749;51.962;8.560;2023-05-14T06:48:36;100278.41;;;20.03;99.19
31096;BME280;17749;51.962;8.560;2023-05-14T06:51:03;100279.06;;;20.18;94.90
31096;BME280;17749;51.962;8.560;2023-05-14T06:53:30;100272.66;;;20.19;90.34
31096;BME280;17749;51.962;8.560;2023-05-14T06:55:56;100276.38;;;20.18;89.91
31096;BME280;17749;51.962;8.560;2023-05-14T06:58:23;100274.38;;;20.20;89.94
31096;BME280;17749;51.962;8.560;2023-05-14T07:00:50;100267.25;;;20.19;89.84
31096;BME280;17749;51.962;8.560;2023-05-14T07:03:17;100264.06;;;20.13;90.18
31096;BME280;17749;51.962;8.560;2023-05-14T07:05:44;100262.56;;;20.09;88.20
31096;BME280;17749;51.962;8.560;2023-05-14T07:08:12;100262.56;;;20.09;91.96
31096;BME280;17749;51.962;8.560;2023-05-14T07:10:39;100265.88;;;20.02;90.95
31096;BME280;17749;51.962;8.560;2023-05-14T07:13:07;100270.47;;;19.64;88.99
31096;BME280;17749;51.962;8.560;2023-05-14T07:15:34;100264.16;;;19.53;90.38
31096;BME280;17749;51.962;8.560;2023-05-14T07:18:01;100267.22;;;19.11;91.57
31096;BME280;17749;51.962;8.560;2023-05-14T07:20:28;100262.41;;;18.91;92.33
31096;BME280;17749;51.962;8.560;2023-05-14T07:22:55;100265.19;;;19.02;95.70
31096;BME280;17749;51.962;8.560;2023-05-14T07:25:22;100267.00;;;19.14;93.05
31096;BME280;17749;51.962;8.560;2023-05-14T07:27:49;100260.22;;;18.96;92.44
31096;BME280;17749;51.962;8.560;2023-05-14T07:30:17;100260.00;;;18.99;94.46
31096;BME280;17749;51.962;8.560;2023-05-14T07:32:44;100254.78;;;19.21;97.16
31096;BME280;17749;51.962;8.560;2023-05-14T07:35:11;100251.56;;;19.16;97.27
31096;BME280;17749;51.962;8.560;2023-05-14T07:37:38;100251.78;;;19.13;96.89
31096;BME280;17749;51.962;8.560;2023-05-14T07:40:06;100245.41;;;19.14;97.27
31096;BME280;17749;51.962;8.560;2023-05-14T07:42:33;100261.16;;;19.20;98.19
31096;BME280;17749;51.962;8.560;2023-05-14T07:45:03;100256.25;;;19.25;99.10
31096;BME280;17749;51.962;8.560;2023-05-14T07:47:31;100250.00;;;19.25;98.30
31096;BME280;17749;51.962;8.560;2023-05-14T07:49:58;100251.84;;;19.24;98.66
31096;BME280;17749;51.962;8.560;2023-05-14T07:52:25;100242.00;;;19.36;99.22
31096;BME280;17749;51.962;8.560;2023-05-14T07:54:52;100238.25;;;19.50;98.19
31096;BME280;17749;51.962;8.560;2023-05-14T07:57:19;100249.28;;;19.71;98.97
31096;BME280;17749;51.962;8.560;2023-05-14T07:59:47;100243.63;;;20.09;99.84
31096;BME280;17749;51.962;8.560;2023-05-14T08:02:14;100246.16;;;20.35;96.07
31096;BME280;17749;51.962;8.560;2023-05-14T08:04:42;100239.41;;;20.52;96.54
31096;BME280;17749;51.962;8.560;2023-05-14T08:07:10;100243.38;;;20.82;97.39
31096;BME280;17749;51.962;8.560;2023-05-14T08:09:37;100231.31;;;20.97;92.60
31096;BME280;17749;51.962;8.560;2023-05-14T08:12:04;100234.75;;;20.99;91.76
31096;BME280;17749;51.962;8.560;2023-05-14T08:14:31;100234.84;;;21.09;89.06
31096;BME280;17749;51.962;8.560;2023-05-14T08:16:58;100238.25;;;21.22;90.61
31096;BME280;17749;51.962;8.560;2023-05-14T08:19:26;100239.25;;;21.43;88.70
31096;BME280;17749;51.962;8.560;2023-05-14T08:21:53;100241.66;;;21.58;89.15
31096;BME280;17749;51.962;8.560;2023-05-14T08:24:20;100237.19;;;21.68;84.48
31096;BME280;17749;51.962;8.560;2023-05-14T08:26:47;100240.41;;;21.62;83.08
31096;BME280;17749;51.962;8.560;2023-05-14T08:29:14;100233.72;;;21.66;81.20
31096;BME280;17749;51.962;8.560;2023-05-14T08:31:42;100240.50;;;21.93;82.05
31096;BME280;17749;51.962;8.560;2023-05-14T08:34:09;100235.75;;;22.06;82.48
31096;BME280;17749;51.962;8.560;2023-05-14T08:36:37;100235.09;;;22.35;82.90
31096;BME280;17749;51.962;8.560;2023-05-14T08:39:04;100228.25;;;22.61;81.66
31096;BME280;17749;51.962;8.560;2023-05-14T08:41:33;100233.94;;;22.89;78.90
31096;BME280;17749;51.962;8.560;2023-05-14T08:44:11;100236.97;;;22.65;78.14
31096;BME280;17749;51.962;8.560;2023-05-14T08:46:39;100233.66;;;22.30;75.31
31096;BME280;17749;51.962;8.560;2023-05-14T08:51:45;100223.34;;;22.24;78.64
31096;BME280;17749;51.962;8.560;2023-05-14T08:54:15;100219.25;;;22.30;76.07
31096;BME280;17749;51.962;8.560;2023-05-14T08:56:44;100223.53;;;22.63;74.69
31096;BME280;17749;51.962;8.560;2023-05-14T08:59:17;100222.84;;;23.02;73.18
31096;BME280;17749;51.962;8.560;2023-05-14T09:01:51;100213.59;;;23.24;73.53
31096;BME280;17749;51.962;8.560;2023-05-14T09:04:20;100214.94;;;23.58;71.32
31096;BME280;17749;51.962;8.560;2023-05-14T09:06:48;100221.38;;;23.96;71.83
31096;BME280;17749;51.962;8.560;2023-05-14T09:09:17;100215.22;;;24.14;65.38
31096;BME280;17749;51.962;8.560;2023-05-14T09:11:51;100213.78;;;24.10;67.78
31096;BME280;17749;51.962;8.560;2023-05-14T09:14:19;100209.47;;;24.17;67.20
31096;BME280;17749;51.962;8.560;2023-05-14T09:16:47;100202.88;;;24.10;67.96
31096;BME280;17749;51.962;8.560;2023-05-14T09:19:15;100205.69;;;24.37;69.09
31096;BME280;17749;51.962;8.560;2023-05-14T09:21:46;100197.44;;;24.66;66.57
31096;BME280;17749;51.962;8.560;2023-05-14T09:24:24;100204.63;;;24.95;66.50
31096;BME280;17749;51.962;8.560;2023-05-14T09:26:53;100190.63;;;24.80;64.67
31096;BME280;17749;51.962;8.560;2023-05-14T09:29:20;100201.22;;;24.83;66.59
31096;BME280;17749;51.962;8.560;2023-05-14T09:31:49;100204.56;;;25.05;64.01
31096;BME280;17749;51.962;8.560;2023-05-14T09:34:28;100203.75;;;24.95;64.98
31096;BME280;17749;51.962;8.560;2023-05-14T09:39:24;100187.59;;;24.83;65.73
31096;BME280;17749;51.962;8.560;2023-05-14T09:41:52;100197.44;;;24.94;65.36
31096;BME280;17749;51.962;8.560;2023-05-14T09:44:19;100190.63;;;25.08;65.15
31096;BME280;17749;51.962;8.560;2023-05-14T09:46:46;100192.34;;;25.36;64.79
31096;BME280;17749;51.962;8.560;2023-05-14T09:49:14;100183.47;;;25.34;63.36
31096;BME280;17749;51.962;8.560;2023-05-14T09:51:41;100184.00;;;25.38;63.56
31096;BME280;17749;51.962;8.560;2023-05-14T09:54:08;100187.75;;;25.55;60.38
31096;BME280;17749;51.962;8.560;2023-05-14T09:56:36;100182.03;;;25.30;60.49
31096;BME280;17749;51.962;8.560;2023-05-14T09:59:03;100177.84;;;25.18;61.63
31096;BME280;17749;51.962;8.560;2023-05-14T10:01:30;100184.47;;;25.06;62.70
31096;BME280;17749;51.962;8.560;2023-05-14T10:04:06;100171.38;;;25.37;62.17
31096;BME280;17749;51.962;8.560;2023-05-14T10:06:38;100176.34;;;25.77;60.19
31096;BME280;17749;51.962;8.560;2023-05-14T10:09:12;100180.56;;;25.72;59.33
31096;BME280;17749;51.962;8.560;2023-05-14T10:11:43;100187.41;;;25.76;60.10
31096;BME280;17749;51.962;8.560;2023-05-14T10:14:28;100172.94;;;25.57;58.86
31096;BME280;17749;51.962;8.560;2023-05-14T10:16:59;100177.28;;;25.68;59.35
31096;BME280;17749;51.962;8.560;2023-05-14T10:19:32;100168.69;;;25.99;60.79
31096;BME280;17749;51.962;8.560;2023-05-14T10:22:06;100162.94;;;26.02;59.77
31096;BME280;17749;51.962;8.560;2023-05-14T10:24:34;100169.97;;;25.69;58.17
31096;BME280;17749;51.962;8.560;2023-05-14T10:27:01;100161.25;;;25.47;60.07
31096;BME280;17749;51.962;8.560;2023-05-14T10:29:35;100159.91;;;25.33;60.94
31096;BME280;17749;51.962;8.560;2023-05-14T10:32:05;100160.88;;;25.42;60.43
31096;BME280;17749;51.962;8.560;2023-05-14T10:37:14;100152.41;;;25.00;59.35
31096;BME280;17749;51.962;8.560;2023-05-14T10:42:31;100146.72;;;24.93;61.73
31096;BME280;17749;51.962;8.560;2023-05-14T10:45:03;100136.34;;;24.41;62.65
31096;BME280;17749;51.962;8.560;2023-05-14T10:47:34;100142.88;;;24.21;63.36
31096;BME280;17749;51.962;8.560;2023-05-14T10:50:04;100135.09;;;23.89;62.50
31096;BME280;17749;51.962;8.560;2023-05-14T10:52:32;100140.50;;;23.98;64.32
31096;BME280;17749;51.962;8.560;2023-05-14T10:55:02;100135.91;;;23.99;63.35
31096;BME280;17749;51.962;8.560;2023-05-14T10:57:30;100134.25;;;23.78;64.49
31096;BME280;17749;51.962;8.560;2023-05-14T10:59:59;100137.50;;;23.92;64.92
31096;BME280;17749;51.962;8.560;2023-05-14T11:04:59;100129.41;;;23.53;63.83
31096;BME280;17749;51.962;8.560;2023-05-14T11:07:31;100133.69;;;23.16;63.91
31096;BME280;17749;51.962;8.560;2023-05-14T11:09:59;100132.75;;;22.87;64.07
31096;BME280;17749;51.962;8.560;2023-05-14T11:12:26;100133.97;;;22.63;65.82
31096;BME280;17749;51.962;8.560;2023-05-14T11:14:58;100135.53;;;22.56;66.24
31096;BME280;17749;51.962;8.560;2023-05-14T11:17:26;100131.22;;;22.44;65.41
31096;BME280;17749;51.962;8.560;2023-05-14T11:20:00;100125.22;;;22.40;67.50
31096;BME280;17749;51.962;8.560;2023-05-14T11:34:21;100115.09;;;22.21;69.14
31096;BME280;17749;51.962;8.560;2023-05-14T11:37:48;100107.31;;;22.07;68.08
31096;BME280;17749;51.962;8.560;2023-05-14T11:53:10;100111.69;;;21.35;69.85
31096;BME280;17749;51.962;8.560;2023-05-14T11:55:37;100108.50;;;21.30;72.19
31096;BME280;17749;51.962;8.560;2023-05-14T11:58:04;100105.38;;;21.46;72.80
31096;BME280;17749;51.962;8.560;2023-05-14T12:00:31;100096.91;;;21.60;72.24
31096;BME280;17749;51.962;8.560;2023-05-14T12:02:59;100102.00;;;21.75;73.35
31096;BME280;17749;51.962;8.560;2023-05-14T12:05:27;100098.63;;;21.82;71.98
31096;BME280;17749;51.962;8.560;2023-05-14T12:07:53;100090.94;;;21.87;70.69
31096;BME280;17749;51.962;8.560;2023-05-14T12:10:21;100087.69;;;21.94;70.00
31096;BME280;17749;51.962;8.560;2023-05-14T12:12:49;100090.31;;;22.05;69.56
31096;BME280;17749;51.962;8.560;2023-05-14T12:15:16;100083.75;;;22.28;68.39
31096;BME280;17749;51.962;8.560;2023-05-14T12:17:49;100073.22;;;22.35;70.92
31096;BME280;17749;51.962;8.560;2023-05-14T12:20:19;100075.78;;;22.37;72.10
31096;BME280;17749;51.962;8.560;2023-05-14T12:22:46;100071.06;;;22.08;70.74
31096;BME280;17749;51.962;8.560;2023-05-14T12:25:13;100068.50;;;22.06;70.74
31096;BME280;17749;51.962;8.560;2023-05-14T12:27:43;100068.03;;;22.22;70.87
31096;BME280;17749;51.962;8.560;2023-05-14T12:30:11;100067.19;;;22.31;72.05
31096;BME280;17749;51.962;8.560;2023-05-14T12:32:47;100071.78;;;22.41;72.04
31096;BME280;17749;51.962;8.560;2023-05-14T12:35:19;100066.69;;;22.57;70.75
31096;BME280;17749;51.962;8.560;2023-05-14T12:37:46;100062.16;;;22.87;69.96
31096;BME280;17749;51.962;8.560;2023-05-14T12:40:13;100052.75;;;23.10;67.11
31096;BME280;17749;51.962;8.560;2023-05-14T12:42:40;100048.91;;;23.23;66.08
31096;BME280;17749;51.962;8.560;2023-05-14T12:45:07;100053.06;;;23.27;64.65
31096;BME280;17749;51.962;8.560;2023-05-14T12:47:34;100043.00;;;23.37;64.59
31096;BME280;17749;51.962;8.560;2023-05-14T12:50:02;100042.75;;;23.40;64.53
31096;BME280;17749;51.962;8.560;2023-05-14T12:52:29;100037.59;;;23.27;62.84
31096;BME280;17749;51.962;8.560;2023-05-14T12:54:59;100043.31;;;23.34;65.33
31096;BME280;17749;51.962;8.560;2023-05-14T12:57:27;100042.31;;;23.35;64.80
31096;BME280;17749;51.962;8.560;2023-05-14T12:59:55;100041.03;;;23.19;63.30
31096;BME280;17749;51.962;8.560;2023-05-14T13:02:22;100039.31;;;23.28;63.53
31096;BME280;17749;51.962;8.560;2023-05-14T13:04:49;100035.03;;;23.35;63.80
31096;BME280;17749;51.962;8.560;2023-05-14T13:07:16;100028.66;;;23.64;64.32
31096;BME280;17749;51.962;8.560;2023-05-14T13:09:44;100026.63;;;23.76;63.87
31096;BME280;17749;51.962;8.560;2023-05-14T13:12:11;100025.06;;;23.83;63.91
31096;BME280;17749;51.962;8.560;2023-05-14T13:14:38;100018.03;;;23.71;63.77
31096;BME280;17749;51.962;8.560;2023-05-14T13:17:04;100022.63;;;23.80;63.92
31096;BME280;17749;51.962;8.560;2023-05-14T13:19:33;100023.69;;;23.97;63.17
31096;BME280;17749;51.962;8.560;2023-05-14T13:22:00;100017.72;;;23.93;63.81
31096;BME280;17749;51.962;8.560;2023-05-14T13:24:27;100018.03;;;23.80;61.52
31096;BME280;17749;51.962;8.560;2023-05-14T13:26:54;100002.75;;;23.70;62.67
31096;BME280;17749;51.962;8.560;2023-05-14T13:29:22;100006.06;;;23.63;64.29
31096;BME280;17749;51.962;8.560;2023-05-14T13:31:49;100002.66;;;23.52;63.39
31096;BME280;17749;51.962;8.560;2023-05-14T13:34:16;100001.88;;;23.22;62.89
31096;BME280;17749;51.962;8.560;2023-05-14T13:36:43;99998.84;;;22.96;61.28
31096;BME280;17749;51.962;8.560;2023-05-14T13:41:40;100000.44;;;22.89;63.57
31096;BME280;17749;51.962;8.560;2023-05-14T13:44:07;99999.84;;;22.95;65.18
31096;BME280;17749;51.962;8.560;2023-05-14T13:46:34;100007.00;;;22.96;64.67
31096;BME280;17749;51.962;8.560;2023-05-14T13:49:01;100005.44;;;22.64;64.68
31096;BME280;17749;51.962;8.560;2023-05-14T13:51:28;99999.56;;;22.59;65.44
31096;BME280;17749;51.962;8.560;2023-05-14T13:53:55;99999.56;;;22.59;66.92
31096;BME280;17749;51.962;8.560;2023-05-14T13:56:22;99998.41;;;22.52;64.73
31096;BME280;17749;51.962;8.560;2023-05-14T13:58:49;99992.81;;;22.44;66.13
31096;BME280;17749;51.962;8.560;2023-05-14T14:01:16;99992.97;;;22.33;66.40
31096;BME280;17749;51.962;8.560;2023-05-14T14:03:43;99987.78;;;22.29;67.03
31096;BME280;17749;51.962;8.560;2023-05-14T14:06:10;99989.38;;;22.32;67.86
31096;BME280;17749;51.962;8.560;2023-05-14T14:08:37;99987.78;;;22.29;67.19
31096;BME280;17749;51.962;8.560;2023-05-14T14:11:04;99984.38;;;22.37;68.02
31096;BME280;17749;51.962;8.560;2023-05-14T14:13:31;99984.09;;;22.30;67.34
31096;BME280;17749;51.962;8.560;2023-05-14T14:15:58;99980.59;;;22.09;64.83
31096;BME280;17749;51.962;8.560;2023-05-14T14:18:25;99977.97;;;21.98;66.46
31096;BME280;17749;51.962;8.560;2023-05-14T14:20:52;99972.84;;;21.95;66.99
31096;BME280;17749;51.962;8.560;2023-05-14T14:23:19;99976.66;;;21.82;66.20
31096;BME280;17749;51.962;8.560;2023-05-14T14:25:46;99975.13;;;21.59;64.28
31096;BME280;17749;51.962;8.560;2023-05-14T14:28:13;99967.47;;;21.43;64.39
31096;BME280;17749;51.962;8.560;2023-05-14T14:30:41;99970.84;;;21.35;65.04
31096;BME280;17749;51.962;8.560;2023-05-14T14:33:09;99971.50;;;21.28;65.44
31096;BME280;17749;51.962;8.560;2023-05-14T14:35:36;99962.78;;;21.24;65.56
31096;BME280;17749;51.962;8.560;2023-05-14T14:38:04;99962.31;;;21.19;64.91
31096;BME280;17749;51.962;8.560;2023-05-14T14:40:32;99954.34;;;21.17;66.10
31096;BME280;17749;51.962;8.560;2023-05-14T14:42:59;99956.19;;;21.17;66.83
31096;BME280;17749;51.962;8.560;2023-05-14T14:45:27;99946.63;;;21.13;66.77
31096;BME280;17749;51.962;8.560;2023-05-14T14:48:26;99939.88;;;21.07;65.15
31096;BME280;17749;51.962;8.560;2023-05-14T14:50:54;99954.06;;;20.99;66.69
31096;BME280;17749;51.962;8.560;2023-05-14T14:53:21;99954.84;;;20.90;67.95
31096;BME280;17749;51.962;8.560;2023-05-14T14:55:49;99942.41;;;20.78;70.54
31096;BME280;17749;51.962;8.560;2023-05-14T14:58:18;99957.53;;;20.69;71.45
31096;BME280;17749;51.962;8.560;2023-05-14T15:00:45;99950.81;;;20.64;71.12
31096;BME280;17749;51.962;8.560;2023-05-14T15:03:13;99950.84;;;20.52;70.58
31096;BME280;17749;51.962;8.560;2023-05-14T15:05:41;99945.81;;;20.48;70.88
31096;BME280;17749;51.962;8.560;2023-05-14T15:08:09;99953.91;;;20.48;71.67
31096;BME280;17749;51.962;8.560;2023-05-14T15:10:36;99954.53;;;20.51;72.10
31096;BME280;17749;51.962;8.560;2023-05-14T15:13:05;99949.13;;;20.51;69.65
31096;BME280;17749;51.962;8.560;2023-05-14T15:15:33;99952.06;;;20.48;68.52
31096;BME280;17749;51.962;8.560;2023-05-14T15:18:02;99951.09;;;20.49;69.27
31096;BME280;17749;51.962;8.560;2023-05-14T15:20:29;99951.34;;;20.57;67.20
31096;BME280;17749;51.962;8.560;2023-05-14T15:22:57;99940.78;;;20.43;64.92
31096;BME280;17749;51.962;8.560;2023-05-14T15:25:25;99950.47;;;20.46;66.39
31096;BME280;17749;51.962;8.560;2023-05-14T15:27:52;99949.75;;;20.55;68.12
31096;BME280;17749;51.962;8.560;2023-05-14T15:30:19;99948.00;;;20.54;69.13
31096;BME280;17749;51.962;8.560;2023-05-14T15:32:46;99941.78;;;20.42;69.09
31096;BME280;17749;51.962;8.560;2023-05-14T15:35:13;99939.59;;;20.36;69.17
31096;BME280;17749;51.962;8.560;2023-05-14T15:37:42;99947.28;;;20.41;70.01
31096;BME280;17749;51.962;8.560;2023-05-14T15:40:10;99933.53;;;20.44;70.88
31096;BME280;17749;51.962;8.560;2023-05-14T15:42:39;99935.84;;;20.48;71.55
31096;BME280;17749;51.962;8.560;2023-05-14T15:45:08;99933.53;;;20.55;70.83
31096;BME280;17749;51.962;8.560;2023-05-14T15:47:36;99925.25;;;20.56;70.75
31096;BME280;17749;51.962;8.560;2023-05-14T15:50:03;99921.44;;;20.59;71.39
31096;BME280;17749;51.962;8.560;2023-05-14T15:52:31;99917.38;;;20.65;71.94
31096;BME280;17749;51.962;8.560;2023-05-14T15:54:57;99913.00;;;20.73;72.38
31096;BME280;17749;51.962;8.560;2023-05-14T15:57:25;99922.56;;;20.77;69.96
31096;BME280;17749;51.962;8.560;2023-05-14T15:59:52;99918.03;;;20.78;69.97
31096;BME280;17749;51.962;8.560;2023-05-14T16:02:19;99916.31;;;20.77;69.09
31096;BME280;17749;51.962;8.560;2023-05-14T16:04:46;99905.47;;;20.77;67.50
31096;BME280;17749;51.962;8.560;2023-05-14T16:07:15;99907.06;;;20.79;68.29
31096;BME280;17749;51.962;8.560;2023-05-14T16:09:42;99909.91;;;20.78;66.91
31096;BME280;17749;51.962;8.560;2023-05-14T16:12:09;99907.22;;;20.78;66.19
31096;BME280;17749;51.962;8.560;2023-05-14T16:14:36;99900.34;;;20.74;66.83
31096;BME280;17749;51.962;8.560;2023-05-14T16:17:06;99902.78;;;20.77;66.61
31096;BME280;17749;51.962;8.560;2023-05-14T16:19:33;99902.25;;;20.83;67.27
31096;BME280;17749;51.962;8.560;2023-05-14T16:22:00;99899.81;;;20.80;66.07
31096;BME280;17749;51.962;8.560;2023-05-14T16:24:27;99899.81;;;20.80;67.01
31096;BME280;17749;51.962;8.560;2023-05-14T16:26:54;99901.53;;;20.81;67.68
31096;BME280;17749;51.962;8.560;2023-05-14T16:29:21;99901.81;;;20.78;67.56
31096;BME280;17749;51.962;8.560;2023-05-14T16:31:48;99896.63;;;20.75;67.16
31096;BME280;17749;51.962;8.560;2023-05-14T16:34:15;99887.94;;;20.71;67.23
31096;BME280;17749;51.962;8.560;2023-05-14T16:36:42;99891.50;;;20.72;68.27
31096;BME280;17749;51.962;8.560;2023-05-14T16:39:09;99893.50;;;20.70;67.30
31096;BME280;17749;51.962;8.560;2023-05-14T16:41:37;99885.75;;;20.65;68.46
31096;BME280;17749;51.962;8.560;2023-05-14T16:44:04;99892.28;;;20.63;69.05
31096;BME280;17749;51.962;8.560;2023-05-14T16:46:31;99881.75;;;20.60;69.54
31096;BME280;17749;51.962;8.560;2023-05-14T16:48:58;99887.53;;;20.55;69.89
31096;BME280;17749;51.962;8.560;2023-05-14T16:51:25;99883.09;;;20.54;69.94
31096;BME280;17749;51.962;8.560;2023-05-14T16:53:52;99880.16;;;20.46;69.66
31096;BME280;17749;51.962;8.560;2023-05-14T16:56:21;99885.25;;;20.39;70.10
31096;BME280;17749;51.962;8.560;2023-05-14T16:58:48;99886.00;;;20.30;70.44
31096;BME280;17749;51.962;8.560;2023-05-14T17:01:15;99889.13;;;20.25;71.51
31096;BME280;17749;51.962;8.560;2023-05-14T17:03:42;99887.91;;;20.18;71.42
31096;BME280;17749;51.962;8.560;2023-05-14T17:06:11;99886.31;;;20.16;71.56
31096;BME280;17749;51.962;8.560;2023-05-14T17:08:38;99886.09;;;20.07;71.46
31096;BME280;17749;51.962;8.560;2023-05-14T17:11:05;99895.69;;;20.00;71.44
31096;BME280;17749;51.962;8.560;2023-05-14T17:13:32;99897.91;;;19.95;71.31
31096;BME280;17749;51.962;8.560;2023-05-14T17:16:00;99900.41;;;19.87;71.61
31096;BME280;17749;51.962;8.560;2023-05-14T17:18:27;99891.81;;;19.82;71.89
31096;BME280;17749;51.962;8.560;2023-05-14T17:20:55;99896.47;;;19.80;72.98
31096;BME280;17749;51.962;8.560;2023-05-14T17:23:22;99890.59;;;19.75;72.89
31096;BME280;17749;51.962;8.560;2023-05-14T17:25:49;99893.44;;;19.73;74.00
31096;BME280;17749;51.962;8.560;2023-05-14T17:28:16;99893.66;;;19.70;75.06
31096;BME280;17749;51.962;8.560;2023-05-14T17:30:44;99893.06;;;19.66;77.38
31096;BME280;17749;51.962;8.560;2023-05-14T17:33:13;99890.94;;;19.59;76.88
31096;BME280;17749;51.962;8.560;2023-05-14T17:35:42;99894.00;;;19.54;77.54
31096;BME280;17749;51.962;8.560;2023-05-14T17:38:13;99882.00;;;19.47;76.43
31096;BME280;17749;51.962;8.560;2023-05-14T17:40:40;99882.38;;;19.42;76.58
31096;BME280;17749;51.962;8.560;2023-05-14T17:43:09;99889.88;;;19.39;79.04
31096;BME280;17749;51.962;8.560;2023-05-14T17:45:37;99889.25;;;19.35;80.89
31096;BME280;17749;51.962;8.560;2023-05-14T17:48:20;99888.88;;;19.29;81.18
31096;BME280;17749;51.962;8.560;2023-05-14T17:50:47;99905.44;;;19.24;81.64
31096;BME280;17749;51.962;8.560;2023-05-14T17:53:14;99896.75;;;19.20;83.49
31096;BME280;17749;51.962;8.560;2023-05-14T17:55:41;99888.84;;;19.17;85.47
31096;BME280;17749;51.962;8.560;2023-05-14T17:58:10;99898.94;;;19.15;87.11
31096;BME280;17749;51.962;8.560;2023-05-14T18:00:38;99905.78;;;19.08;85.66
31096;BME280;17749;51.962;8.560;2023-05-14T18:03:06;99909.09;;;19.00;85.25
31096;BME280;17749;51.962;8.560;2023-05-14T18:05:34;99906.00;;;18.94;85.20
31096;BME280;17749;51.962;8.560;2023-05-14T18:08:02;99898.75;;;18.83;86.18
31096;BME280;17749;51.962;8.560;2023-05-14T18:10:29;99897.59;;;18.74;88.03
31096;BME280;17749;51.962;8.560;2023-05-14T18:12:58;99902.97;;;18.63;91.04
31096;BME280;17749;51.962;8.560;2023-05-14T18:15:25;99910.66;;;18.56;91.55
31096;BME280;17749;51.962;8.560;2023-05-14T18:17:53;99911.25;;;18.49;93.22
31096;BME280;17749;51.962;8.560;2023-05-14T18:20:22;99915.38;;;18.42;95.37
31096;BME280;17749;51.962;8.560;2023-05-14T18:22:49;99916.09;;;18.32;96.65
31096;BME280;17749;51.962;8.560;2023-05-14T18:25:33;99916.56;;;18.26;99.90
31096;BME280;17749;51.962;8.560;2023-05-14T18:28:00;99913.53;;;18.18;100.00
31096;BME280;17749;51.962;8.560;2023-05-14T18:30:30;99913.78;;;18.15;100.00
31096;BME280;17749;51.962;8.560;2023-05-14T18:32:59;99911.22;;;18.13;100.00
31096;BME280;17749;51.962;8.560;2023-05-14T18:35:27;99923.31;;;18.08;100.00
31096;BME280;17749;51.962;8.560;2023-05-14T18:37:54;99927.19;;;18.04;100.00